sensor_id;sensor_type;location;lat;lon;timestamp;P1;durP1;ratioP1;P2;durP2;ratioP2
17997;SDS011;9124;48.144;17.098;2023-03-01T00:01:03;8.80;;;6.68;;
17997;SDS011;9124;48.144;17.098;2023-03-01T00:04:51;9.95;;;6.47;;
17997;SDS011;9124;48.144;17.098;2023-03-01T00:08:28;7.93;;;6.40;;
17997;SDS011;9124;48.144;17.098;2023-03-01T00:12:06;13.02;;;7.60;;
17997;SDS011;9124;48.144;17.098;2023-03-01T00:15:42;11.80;;;7.63;;
17997;SDS011;9124;48.144;17.098;2023-03-01T00:19:19;16.10;;;8.55;;
17997;SDS011;9124;48.144;17.098;2023-03-01T00:22:57;14.05;;;8.18;;
17997;SDS011;9124;48.144;17.098;2023-03-01T00:26:36;9.50;;;7.53;;
17997;SDS011;9124;48.144;17.098;2023-03-01T00:30:13;12.18;;;7.50;;
17997;SDS011;9124;48.144;17.098;2023-03-01T00:33:52;10.88;;;6.70;;
17997;SDS011;9124;48.144;17.098;2023-03-01T00:37:32;10.82;;;8.02;;
17997;SDS011;9124;48.144;17.098;2023-03-01T00:41:10;9.77;;;7.30;;
17997;SDS011;9124;48.144;17.098;2023-03-01T00:44:48;12.32;;;7.47;;
17997;SDS011;9124;48.144;17.098;2023-03-01T00:48:24;7.55;;;6.25;;
17997;SDS011;9124;48.144;17.098;2023-03-01T00:52:01;15.00;;;7.97;;
17997;SDS011;9124;48.144;17.098;2023-03-01T00:55:37;12.55;;;8.05;;
17997;SDS011;9124;48.144;17.098;2023-03-01T00:59:15;10.95;;;7.68;;
17997;SDS011;9124;48.144;17.098;2023-03-01T01:02:51;10.63;;;7.85;;
17997;SDS011;9124;48.144;17.098;2023-03-01T01:06:29;11.68;;;7.80;;
17997;SDS011;9124;48.144;17.098;2023-03-01T01:10:11;11.45;;;7.15;;
17997;SDS011;9124;48.144;17.098;2023-03-01T01:13:52;12.20;;;6.70;;
17997;SDS011;9124;48.144;17.098;2023-03-01T01:17:29;9.82;;;7.10;;
17997;SDS011;9124;48.144;17.098;2023-03-01T01:21:06;15.90;;;8.00;;
17997;SDS011;9124;48.144;17.098;2023-03-01T01:24:46;9.95;;;7.13;;
17997;SDS011;9124;48.144;17.098;2023-03-01T01:28:22;8.65;;;7.25;;
17997;SDS011;9124;48.144;17.098;2023-03-01T01:31:59;11.85;;;6.68;;
17997;SDS011;9124;48.144;17.098;2023-03-01T01:35:35;11.82;;;6.85;;
17997;SDS011;9124;48.144;17.098;2023-03-01T01:39:11;11.00;;;7.53;;
17997;SDS011;9124;48.144;17.098;2023-03-01T01:42:48;13.73;;;8.68;;
17997;SDS011;9124;48.144;17.098;2023-03-01T01:46:28;13.13;;;9.73;;
17997;SDS011;9124;48.144;17.098;2023-03-01T01:50:08;17.50;;;9.95;;
17997;SDS011;9124;48.144;17.098;2023-03-01T01:53:57;17.00;;;9.77;;
17997;SDS011;9124;48.144;17.098;2023-03-01T01:57:43;27.85;;;10.90;;
17997;SDS011;9124;48.144;17.098;2023-03-01T02:01:23;22.15;;;13.48;;
17997;SDS011;9124;48.144;17.098;2023-03-01T02:05:15;24.10;;;12.88;;
17997;SDS011;9124;48.144;17.098;2023-03-01T02:09:25;22.17;;;13.57;;
17997;SDS011;9124;48.144;17.098;2023-03-01T02:13:03;26.30;;;14.30;;
17997;SDS011;9124;48.144;17.098;2023-03-01T02:16:40;26.65;;;14.98;;
17997;SDS011;9124;48.144;17.098;2023-03-01T02:24:10;29.00;;;14.18;;
17997;SDS011;9124;48.144;17.098;2023-03-01T02:31:52;30.58;;;16.20;;
17997;SDS011;9124;48.144;17.098;2023-03-01T02:35:32;39.17;;;18.58;;
17997;SDS011;9124;48.144;17.098;2023-03-01T02:39:14;32.65;;;17.70;;
17997;SDS011;9124;48.144;17.098;2023-03-01T02:42:58;28.38;;;16.55;;
17997;SDS011;9124;48.144;17.098;2023-03-01T02:46:41;30.88;;;14.65;;
17997;SDS011;9124;48.144;17.098;2023-03-01T02:54:17;25.00;;;13.75;;
17997;SDS011;9124;48.144;17.098;2023-03-01T02:57:57;27.35;;;13.35;;
17997;SDS011;9124;48.144;17.098;2023-03-01T03:01:37;22.30;;;12.05;;
17997;SDS011;9124;48.144;17.098;2023-03-01T03:05:18;21.92;;;12.63;;
17997;SDS011;9124;48.144;17.098;2023-03-01T03:09:03;21.88;;;10.02;;
17997;SDS011;9124;48.144;17.098;2023-03-01T03:12:40;21.98;;;11.45;;
17997;SDS011;9124;48.144;17.098;2023-03-01T03:16:18;20.48;;;11.15;;
17997;SDS011;9124;48.144;17.098;2023-03-01T03:19:54;17.17;;;10.20;;
17997;SDS011;9124;48.144;17.098;2023-03-01T03:23:31;24.38;;;10.70;;
17997;SDS011;9124;48.144;17.098;2023-03-01T03:27:07;13.43;;;9.30;;
17997;SDS011;9124;48.144;17.098;2023-03-01T03:30:44;21.08;;;9.57;;
17997;SDS011;9124;48.144;17.098;2023-03-01T03:34:21;15.02;;;10.55;;
17997;SDS011;9124;48.144;17.098;2023-03-01T03:37:58;14.85;;;9.55;;
17997;SDS011;9124;48.144;17.098;2023-03-01T03:41:38;13.50;;;9.40;;
17997;SDS011;9124;48.144;17.098;2023-03-01T03:45:18;13.73;;;9.30;;
17997;SDS011;9124;48.144;17.098;2023-03-01T03:48:54;18.33;;;9.65;;
17997;SDS011;9124;48.144;17.098;2023-03-01T03:52:31;14.55;;;8.98;;
17997;SDS011;9124;48.144;17.098;2023-03-01T03:56:07;17.52;;;9.48;;
17997;SDS011;9124;48.144;17.098;2023-03-01T03:59:44;20.77;;;9.27;;
17997;SDS011;9124;48.144;17.098;2023-03-01T04:03:20;15.75;;;10.27;;
17997;SDS011;9124;48.144;17.098;2023-03-01T04:06:57;16.77;;;9.10;;
17997;SDS011;9124;48.144;17.098;2023-03-01T04:10:38;20.15;;;10.02;;
17997;SDS011;9124;48.144;17.098;2023-03-01T04:14:16;14.65;;;9.30;;
17997;SDS011;9124;48.144;17.098;2023-03-01T04:17:53;11.82;;;8.27;;
17997;SDS011;9124;48.144;17.098;2023-03-01T04:21:30;22.80;;;9.60;;
17997;SDS011;9124;48.144;17.098;2023-03-01T04:25:07;17.15;;;10.02;;
17997;SDS011;9124;48.144;17.098;2023-03-01T04:28:43;13.40;;;8.98;;
17997;SDS011;9124;48.144;17.098;2023-03-01T04:32:21;17.05;;;9.13;;
17997;SDS011;9124;48.144;17.098;2023-03-01T04:35:57;14.60;;;8.68;;
17997;SDS011;9124;48.144;17.098;2023-03-01T04:39:34;14.95;;;8.75;;
17997;SDS011;9124;48.144;17.098;2023-03-01T04:43:20;18.13;;;8.52;;
17997;SDS011;9124;48.144;17.098;2023-03-01T04:46:58;17.10;;;8.80;;
17997;SDS011;9124;48.144;17.098;2023-03-01T04:50:34;13.38;;;8.82;;
17997;SDS011;9124;48.144;17.098;2023-03-01T04:54:11;15.25;;;8.93;;
17997;SDS011;9124;48.144;17.098;2023-03-01T04:57:47;22.25;;;10.30;;
17997;SDS011;9124;48.144;17.098;2023-03-01T05:01:24;11.55;;;8.75;;
17997;SDS011;9124;48.144;17.098;2023-03-01T05:05:00;18.88;;;10.23;;
17997;SDS011;9124;48.144;17.098;2023-03-01T05:08:37;16.90;;;10.18;;
17997;SDS011;9124;48.144;17.098;2023-03-01T05:12:14;14.27;;;8.82;;
17997;SDS011;9124;48.144;17.098;2023-03-01T05:16:00;16.85;;;9.57;;
17997;SDS011;9124;48.144;17.098;2023-03-01T05:19:38;19.63;;;10.15;;
17997;SDS011;9124;48.144;17.098;2023-03-01T05:23:19;19.08;;;9.95;;
17997;SDS011;9124;48.144;17.098;2023-03-01T05:26:55;14.43;;;8.55;;
17997;SDS011;9124;48.144;17.098;2023-03-01T05:30:32;21.58;;;9.15;;
17997;SDS011;9124;48.144;17.098;2023-03-01T05:34:09;17.35;;;9.60;;
17997;SDS011;9124;48.144;17.098;2023-03-01T05:37:48;16.33;;;10.15;;
17997;SDS011;9124;48.144;17.098;2023-03-01T05:41:25;17.75;;;10.80;;
17997;SDS011;9124;48.144;17.098;2023-03-01T05:45:01;13.10;;;8.75;;
17997;SDS011;9124;48.144;17.098;2023-03-01T05:48:38;19.60;;;9.20;;
17997;SDS011;9124;48.144;17.098;2023-03-01T05:52:14;16.38;;;9.45;;
17997;SDS011;9124;48.144;17.098;2023-03-01T05:55:50;16.38;;;10.88;;
17997;SDS011;9124;48.144;17.098;2023-03-01T05:59:27;19.50;;;11.05;;
17997;SDS011;9124;48.144;17.098;2023-03-01T06:03:03;15.82;;;10.18;;
17997;SDS011;9124;48.144;17.098;2023-03-01T06:06:39;17.38;;;9.50;;
17997;SDS011;9124;48.144;17.098;2023-03-01T06:10:16;18.10;;;10.60;;
17997;SDS011;9124;48.144;17.098;2023-03-01T06:13:53;20.48;;;10.27;;
17997;SDS011;9124;48.144;17.098;2023-03-01T06:17:31;22.63;;;11.52;;
17997;SDS011;9124;48.144;17.098;2023-03-01T06:21:08;16.48;;;9.07;;
17997;SDS011;9124;48.144;17.098;2023-03-01T06:24:44;12.73;;;8.48;;
17997;SDS011;9124;48.144;17.098;2023-03-01T06:28:21;14.88;;;9.35;;
17997;SDS011;9124;48.144;17.098;2023-03-01T06:31:57;11.70;;;8.75;;
17997;SDS011;9124;48.144;17.098;2023-03-01T06:35:34;14.80;;;8.75;;
17997;SDS011;9124;48.144;17.098;2023-03-01T06:39:10;17.58;;;8.32;;
17997;SDS011;9124;48.144;17.098;2023-03-01T06:42:49;11.60;;;8.05;;
17997;SDS011;9124;48.144;17.098;2023-03-01T06:46:26;14.57;;;9.43;;
17997;SDS011;9124;48.144;17.098;2023-03-01T06:50:03;9.55;;;7.85;;
17997;SDS011;9124;48.144;17.098;2023-03-01T06:53:39;13.23;;;7.70;;
17997;SDS011;9124;48.144;17.098;2023-03-01T06:57:16;15.32;;;8.23;;
17997;SDS011;9124;48.144;17.098;2023-03-01T07:00:53;15.98;;;8.80;;
17997;SDS011;9124;48.144;17.098;2023-03-01T07:04:29;17.90;;;8.65;;
17997;SDS011;9124;48.144;17.098;2023-03-01T07:08:06;14.38;;;8.52;;
17997;SDS011;9124;48.144;17.098;2023-03-01T07:11:42;15.32;;;9.18;;
17997;SDS011;9124;48.144;17.098;2023-03-01T07:15:19;9.95;;;7.65;;
17997;SDS011;9124;48.144;17.098;2023-03-01T07:18:55;11.75;;;8.27;;
17997;SDS011;9124;48.144;17.098;2023-03-01T07:22:31;14.13;;;9.13;;
17997;SDS011;9124;48.144;17.098;2023-03-01T07:26:07;11.68;;;7.82;;
17997;SDS011;9124;48.144;17.098;2023-03-01T07:29:44;12.88;;;8.80;;
17997;SDS011;9124;48.144;17.098;2023-03-01T07:33:20;9.80;;;7.25;;
17997;SDS011;9124;48.144;17.098;2023-03-01T07:36:57;9.90;;;7.90;;
17997;SDS011;9124;48.144;17.098;2023-03-01T07:40:33;9.27;;;6.93;;
17997;SDS011;9124;48.144;17.098;2023-03-01T07:44:09;12.70;;;7.40;;
17997;SDS011;9124;48.144;17.098;2023-03-01T07:47:46;14.07;;;8.30;;
17997;SDS011;9124;48.144;17.098;2023-03-01T07:51:23;13.57;;;7.60;;
17997;SDS011;9124;48.144;17.098;2023-03-01T07:54:59;11.18;;;7.80;;
17997;SDS011;9124;48.144;17.098;2023-03-01T07:58:36;12.20;;;8.45;;
17997;SDS011;9124;48.144;17.098;2023-03-01T08:02:14;13.48;;;8.75;;
17997;SDS011;9124;48.144;17.098;2023-03-01T08:05:50;15.75;;;9.93;;
17997;SDS011;9124;48.144;17.098;2023-03-01T08:09:27;17.30;;;9.65;;
17997;SDS011;9124;48.144;17.098;2023-03-01T08:13:03;14.60;;;10.00;;
17997;SDS011;9124;48.144;17.098;2023-03-01T08:16:40;16.23;;;9.48;;
17997;SDS011;9124;48.144;17.098;2023-03-01T08:20:16;16.88;;;11.18;;
17997;SDS011;9124;48.144;17.098;2023-03-01T08:23:52;15.20;;;10.15;;
17997;SDS011;9124;48.144;17.098;2023-03-01T08:27:29;14.48;;;9.25;;
17997;SDS011;9124;48.144;17.098;2023-03-01T08:31:22;16.48;;;9.93;;
17997;SDS011;9124;48.144;17.098;2023-03-01T08:35:00;16.15;;;9.65;;
17997;SDS011;9124;48.144;17.098;2023-03-01T08:38:36;18.08;;;7.75;;
17997;SDS011;9124;48.144;17.098;2023-03-01T08:42:12;13.05;;;7.85;;
17997;SDS011;9124;48.144;17.098;2023-03-01T08:45:49;9.85;;;8.05;;
17997;SDS011;9124;48.144;17.098;2023-03-01T08:49:25;13.73;;;7.75;;
17997;SDS011;9124;48.144;17.098;2023-03-01T08:53:02;10.65;;;8.02;;
17997;SDS011;9124;48.144;17.098;2023-03-01T08:56:38;11.48;;;8.85;;
17997;SDS011;9124;48.144;17.098;2023-03-01T09:00:15;12.02;;;8.70;;
17997;SDS011;9124;48.144;17.098;2023-03-01T09:03:53;9.43;;;8.52;;
17997;SDS011;9124;48.144;17.098;2023-03-01T09:07:29;10.43;;;8.55;;
17997;SDS011;9124;48.144;17.098;2023-03-01T09:11:06;11.10;;;9.20;;
17997;SDS011;9124;48.144;17.098;2023-03-01T09:14:44;12.48;;;9.93;;
17997;SDS011;9124;48.144;17.098;2023-03-01T09:18:20;10.23;;;9.23;;
17997;SDS011;9124;48.144;17.098;2023-03-01T09:21:57;10.73;;;9.65;;
17997;SDS011;9124;48.144;17.098;2023-03-01T09:25:34;10.50;;;9.48;;
17997;SDS011;9124;48.144;17.098;2023-03-01T09:29:11;10.98;;;9.70;;
17997;SDS011;9124;48.144;17.098;2023-03-01T09:32:47;12.30;;;9.38;;
17997;SDS011;9124;48.144;17.098;2023-03-01T09:36:24;10.55;;;9.52;;
17997;SDS011;9124;48.144;17.098;2023-03-01T09:40:01;11.23;;;10.10;;
17997;SDS011;9124;48.144;17.098;2023-03-01T09:43:44;11.18;;;10.15;;
17997;SDS011;9124;48.144;17.098;2023-03-01T09:47:40;10.65;;;9.75;;
17997;SDS011;9124;48.144;17.098;2023-03-01T09:51:18;11.35;;;9.05;;
17997;SDS011;9124;48.144;17.098;2023-03-01T09:55:09;10.15;;;9.13;;
17997;SDS011;9124;48.144;17.098;2023-03-01T10:06:30;9.80;;;9.00;;
17997;SDS011;9124;48.144;17.098;2023-03-01T10:10:07;10.05;;;9.20;;
17997;SDS011;9124;48.144;17.098;2023-03-01T10:13:46;11.27;;;10.20;;
17997;SDS011;9124;48.144;17.098;2023-03-01T10:17:45;11.88;;;9.50;;
17997;SDS011;9124;48.144;17.098;2023-03-01T10:21:22;9.80;;;9.05;;
17997;SDS011;9124;48.144;17.098;2023-03-01T10:24:59;8.80;;;8.13;;
17997;SDS011;9124;48.144;17.098;2023-03-01T10:28:48;8.45;;;7.63;;
17997;SDS011;9124;48.144;17.098;2023-03-01T10:32:30;9.82;;;8.68;;
17997;SDS011;9124;48.144;17.098;2023-03-01T10:36:07;9.02;;;8.23;;
17997;SDS011;9124;48.144;17.098;2023-03-01T10:39:57;8.88;;;8.25;;
17997;SDS011;9124;48.144;17.098;2023-03-01T10:43:50;8.27;;;7.60;;
17997;SDS011;9124;48.144;17.098;2023-03-01T10:47:29;8.27;;;7.68;;
17997;SDS011;9124;48.144;17.098;2023-03-01T10:51:06;8.50;;;7.90;;
17997;SDS011;9124;48.144;17.098;2023-03-01T10:54:56;7.75;;;7.25;;
17997;SDS011;9124;48.144;17.098;2023-03-01T10:58:36;6.70;;;6.30;;
17997;SDS011;9124;48.144;17.098;2023-03-01T11:02:15;7.95;;;7.25;;
17997;SDS011;9124;48.144;17.098;2023-03-01T11:09:48;6.65;;;6.25;;
17997;SDS011;9124;48.144;17.098;2023-03-01T11:13:24;6.72;;;6.22;;
17997;SDS011;9124;48.144;17.098;2023-03-01T11:17:05;7.90;;;7.13;;
17997;SDS011;9124;48.144;17.098;2023-03-01T11:20:47;7.57;;;7.07;;
17997;SDS011;9124;48.144;17.098;2023-03-01T11:24:43;7.30;;;6.70;;
17997;SDS011;9124;48.144;17.098;2023-03-01T11:28:22;7.35;;;6.75;;
17997;SDS011;9124;48.144;17.098;2023-03-01T11:32:01;8.20;;;6.65;;
17997;SDS011;9124;48.144;17.098;2023-03-01T11:35:57;6.20;;;5.70;;
17997;SDS011;9124;48.144;17.098;2023-03-01T11:39:41;7.88;;;7.10;;
17997;SDS011;9124;48.144;17.098;2023-03-01T11:43:27;8.07;;;6.75;;
17997;SDS011;9124;48.144;17.098;2023-03-01T11:47:11;7.68;;;6.85;;
17997;SDS011;9124;48.144;17.098;2023-03-01T11:51:23;9.45;;;7.65;;
17997;SDS011;9124;48.144;17.098;2023-03-01T12:11:21;9.60;;;5.70;;
17997;SDS011;9124;48.144;17.098;2023-03-01T12:15:18;10.38;;;6.25;;
17997;SDS011;9124;48.144;17.098;2023-03-01T12:27:00;9.85;;;6.47;;
17997;SDS011;9124;48.144;17.098;2023-03-01T12:34:47;6.97;;;6.15;;
17997;SDS011;9124;48.144;17.098;2023-03-01T12:50:40;6.90;;;6.03;;
17997;SDS011;9124;48.144;17.098;2023-03-01T12:54:26;9.35;;;5.93;;
17997;SDS011;9124;48.144;17.098;2023-03-01T13:02:05;8.82;;;6.53;;
17997;SDS011;9124;48.144;17.098;2023-03-01T13:18:01;8.00;;;6.28;;
17997;SDS011;9124;48.144;17.098;2023-03-01T13:21:38;6.50;;;5.93;;
17997;SDS011;9124;48.144;17.098;2023-03-01T13:25:16;8.25;;;6.22;;
17997;SDS011;9124;48.144;17.098;2023-03-01T13:28:54;6.68;;;5.90;;
17997;SDS011;9124;48.144;17.098;2023-03-01T13:32:33;8.90;;;6.35;;
17997;SDS011;9124;48.144;17.098;2023-03-01T13:43:53;6.25;;;5.03;;
17997;SDS011;9124;48.144;17.098;2023-03-01T13:47:30;6.40;;;5.72;;
17997;SDS011;9124;48.144;17.098;2023-03-01T13:51:10;8.40;;;4.70;;
17997;SDS011;9124;48.144;17.098;2023-03-01T13:54:49;8.32;;;5.63;;
17997;SDS011;9124;48.144;17.098;2023-03-01T13:58:26;6.10;;;5.32;;
17997;SDS011;9124;48.144;17.098;2023-03-01T14:02:16;5.68;;;4.78;;
17997;SDS011;9124;48.144;17.098;2023-03-01T14:09:56;5.35;;;4.70;;
17997;SDS011;9124;48.144;17.098;2023-03-01T14:21:08;7.22;;;6.00;;
17997;SDS011;9124;48.144;17.098;2023-03-01T14:24:49;6.40;;;5.78;;
17997;SDS011;9124;48.144;17.098;2023-03-01T14:28:28;7.10;;;4.53;;
17997;SDS011;9124;48.144;17.098;2023-03-01T14:32:19;7.18;;;4.95;;
17997;SDS011;9124;48.144;17.098;2023-03-01T14:36:07;5.93;;;4.68;;
17997;SDS011;9124;48.144;17.098;2023-03-01T14:39:46;5.88;;;4.65;;
17997;SDS011;9124;48.144;17.098;2023-03-01T14:43:23;9.48;;;3.80;;
17997;SDS011;9124;48.144;17.098;2023-03-01T14:47:04;5.40;;;4.15;;
17997;SDS011;9124;48.144;17.098;2023-03-01T14:50:41;7.22;;;4.35;;
17997;SDS011;9124;48.144;17.098;2023-03-01T14:54:35;3.78;;;3.40;;
17997;SDS011;9124;48.144;17.098;2023-03-01T14:58:14;6.30;;;3.78;;
17997;SDS011;9124;48.144;17.098;2023-03-01T15:01:55;7.97;;;3.60;;
17997;SDS011;9124;48.144;17.098;2023-03-01T15:05:33;6.97;;;3.45;;
17997;SDS011;9124;48.144;17.098;2023-03-01T15:09:14;6.20;;;3.88;;
17997;SDS011;9124;48.144;17.098;2023-03-01T15:12:52;3.53;;;3.22;;
17997;SDS011;9124;48.144;17.098;2023-03-01T15:16:29;5.35;;;3.67;;
17997;SDS011;9124;48.144;17.098;2023-03-01T15:20:18;4.45;;;3.35;;
17997;SDS011;9124;48.144;17.098;2023-03-01T15:27:56;6.47;;;3.00;;
17997;SDS011;9124;48.144;17.098;2023-03-01T15:31:35;3.15;;;2.85;;
17997;SDS011;9124;48.144;17.098;2023-03-01T15:43:36;3.30;;;2.58;;
17997;SDS011;9124;48.144;17.098;2023-03-01T15:51:02;3.90;;;2.72;;
17997;SDS011;9124;48.144;17.098;2023-03-01T15:54:39;3.17;;;2.88;;
17997;SDS011;9124;48.144;17.098;2023-03-01T15:58:18;4.55;;;2.80;;
17997;SDS011;9124;48.144;17.098;2023-03-01T16:02:17;4.50;;;3.25;;
17997;SDS011;9124;48.144;17.098;2023-03-01T16:05:56;3.85;;;3.40;;
17997;SDS011;9124;48.144;17.098;2023-03-01T16:09:32;3.53;;;3.10;;
17997;SDS011;9124;48.144;17.098;2023-03-01T16:13:09;4.70;;;3.85;;
17997;SDS011;9124;48.144;17.098;2023-03-01T16:16:49;5.22;;;4.18;;
17997;SDS011;9124;48.144;17.098;2023-03-01T16:20:26;4.72;;;3.85;;
17997;SDS011;9124;48.144;17.098;2023-03-01T16:24:03;4.97;;;3.85;;
17997;SDS011;9124;48.144;17.098;2023-03-01T16:27:44;8.95;;;4.53;;
17997;SDS011;9124;48.144;17.098;2023-03-01T16:31:22;5.05;;;4.13;;
17997;SDS011;9124;48.144;17.098;2023-03-01T16:35:02;5.32;;;3.85;;
17997;SDS011;9124;48.144;17.098;2023-03-01T16:38:38;8.93;;;4.47;;
17997;SDS011;9124;48.144;17.098;2023-03-01T16:42:15;5.25;;;3.80;;
17997;SDS011;9124;48.144;17.098;2023-03-01T16:45:52;7.85;;;3.90;;
17997;SDS011;9124;48.144;17.098;2023-03-01T16:49:28;4.78;;;4.05;;
17997;SDS011;9124;48.144;17.098;2023-03-01T16:53:05;6.10;;;3.97;;
17997;SDS011;9124;48.144;17.098;2023-03-01T16:56:41;7.28;;;4.93;;
17997;SDS011;9124;48.144;17.098;2023-03-01T17:00:18;7.05;;;4.80;;
17997;SDS011;9124;48.144;17.098;2023-03-01T17:03:54;5.68;;;4.95;;
17997;SDS011;9124;48.144;17.098;2023-03-01T17:07:31;8.05;;;5.60;;
17997;SDS011;9124;48.144;17.098;2023-03-01T17:11:10;7.93;;;6.75;;
17997;SDS011;9124;48.144;17.098;2023-03-01T17:14:50;12.23;;;7.50;;
17997;SDS011;9124;48.144;17.098;2023-03-01T17:18:26;9.27;;;6.90;;
17997;SDS011;9124;48.144;17.098;2023-03-01T17:22:03;11.15;;;6.25;;
17997;SDS011;9124;48.144;17.098;2023-03-01T17:29:39;10.80;;;6.57;;
17997;SDS011;9124;48.144;17.098;2023-03-01T17:33:16;9.55;;;7.95;;
17997;SDS011;9124;48.144;17.098;2023-03-01T17:36:54;15.10;;;7.97;;
17997;SDS011;9124;48.144;17.098;2023-03-01T17:40:30;15.68;;;8.85;;
17997;SDS011;9124;48.144;17.098;2023-03-01T17:44:07;14.75;;;9.60;;
17997;SDS011;9124;48.144;17.098;2023-03-01T17:47:44;13.60;;;8.50;;
17997;SDS011;9124;48.144;17.098;2023-03-01T17:51:20;15.68;;;8.98;;
17997;SDS011;9124;48.144;17.098;2023-03-01T17:54:57;14.48;;;9.85;;
17997;SDS011;9124;48.144;17.098;2023-03-01T17:58:34;18.55;;;10.43;;
17997;SDS011;9124;48.144;17.098;2023-03-01T18:02:11;16.48;;;9.85;;
17997;SDS011;9124;48.144;17.098;2023-03-01T18:05:48;14.07;;;9.20;;
17997;SDS011;9124;48.144;17.098;2023-03-01T18:09:25;17.60;;;10.15;;
17997;SDS011;9124;48.144;17.098;2023-03-01T18:13:03;18.02;;;10.18;;
17997;SDS011;9124;48.144;17.098;2023-03-01T18:16:40;19.58;;;10.75;;
17997;SDS011;9124;48.144;17.098;2023-03-01T18:20:16;19.63;;;10.05;;
17997;SDS011;9124;48.144;17.098;2023-03-01T18:23:54;20.73;;;10.75;;
17997;SDS011;9124;48.144;17.098;2023-03-01T18:27:31;13.98;;;9.40;;
17997;SDS011;9124;48.144;17.098;2023-03-01T18:31:08;14.90;;;10.00;;
17997;SDS011;9124;48.144;17.098;2023-03-01T18:34:45;19.85;;;11.02;;
17997;SDS011;9124;48.144;17.098;2023-03-01T18:38:23;21.40;;;10.13;;
17997;SDS011;9124;48.144;17.098;2023-03-01T18:42:00;15.98;;;9.70;;
17997;SDS011;9124;48.144;17.098;2023-03-01T18:45:36;15.32;;;8.80;;
17997;SDS011;9124;48.144;17.098;2023-03-01T18:49:13;11.82;;;8.75;;
17997;SDS011;9124;48.144;17.098;2023-03-01T18:52:50;12.65;;;8.25;;
17997;SDS011;9124;48.144;17.098;2023-03-01T18:56:30;12.40;;;8.43;;
17997;SDS011;9124;48.144;17.098;2023-03-01T19:00:08;7.95;;;6.75;;
17997;SDS011;9124;48.144;17.098;2023-03-01T19:03:45;14.00;;;7.40;;
17997;SDS011;9124;48.144;17.098;2023-03-01T19:07:22;12.27;;;7.00;;
17997;SDS011;9124;48.144;17.098;2023-03-01T19:11:00;19.75;;;7.13;;
17997;SDS011;9124;48.144;17.098;2023-03-01T19:14:39;11.48;;;7.53;;
17997;SDS011;9124;48.144;17.098;2023-03-01T19:18:16;10.80;;;8.63;;
17997;SDS011;9124;48.144;17.098;2023-03-01T19:21:53;11.27;;;6.82;;
17997;SDS011;9124;48.144;17.098;2023-03-01T19:25:29;14.00;;;7.13;;
17997;SDS011;9124;48.144;17.098;2023-03-01T19:29:05;10.18;;;6.32;;
17997;SDS011;9124;48.144;17.098;2023-03-01T19:32:42;9.45;;;6.70;;
17997;SDS011;9124;48.144;17.098;2023-03-01T19:36:19;9.30;;;6.35;;
17997;SDS011;9124;48.144;17.098;2023-03-01T19:39:55;7.40;;;5.43;;
17997;SDS011;9124;48.144;17.098;2023-03-01T19:43:32;7.47;;;5.10;;
17997;SDS011;9124;48.144;17.098;2023-03-01T19:47:08;5.65;;;4.47;;
17997;SDS011;9124;48.144;17.098;2023-03-01T19:50:44;8.48;;;5.38;;
17997;SDS011;9124;48.144;17.098;2023-03-01T19:54:21;6.57;;;5.38;;
17997;SDS011;9124;48.144;17.098;2023-03-01T19:57:57;10.98;;;5.35;;
17997;SDS011;9124;48.144;17.098;2023-03-01T20:01:33;7.60;;;5.05;;
17997;SDS011;9124;48.144;17.098;2023-03-01T20:05:12;8.05;;;5.18;;
17997;SDS011;9124;48.144;17.098;2023-03-01T20:08:48;10.82;;;5.35;;
17997;SDS011;9124;48.144;17.098;2023-03-01T20:12:24;7.93;;;5.60;;
17997;SDS011;9124;48.144;17.098;2023-03-01T20:16:01;7.18;;;5.60;;
17997;SDS011;9124;48.144;17.098;2023-03-01T20:19:37;7.80;;;5.20;;
17997;SDS011;9124;48.144;17.098;2023-03-01T20:23:13;13.88;;;5.85;;
17997;SDS011;9124;48.144;17.098;2023-03-01T20:26:50;7.68;;;6.30;;
17997;SDS011;9124;48.144;17.098;2023-03-01T20:30:27;9.50;;;6.38;;
17997;SDS011;9124;48.144;17.098;2023-03-01T20:34:03;9.73;;;5.57;;
17997;SDS011;9124;48.144;17.098;2023-03-01T20:37:39;8.68;;;5.70;;
17997;SDS011;9124;48.144;17.098;2023-03-01T20:41:15;10.80;;;6.78;;
17997;SDS011;9124;48.144;17.098;2023-03-01T20:44:52;20.33;;;7.63;;
17997;SDS011;9124;48.144;17.098;2023-03-01T20:48:28;14.27;;;8.35;;
17997;SDS011;9124;48.144;17.098;2023-03-01T20:52:05;16.42;;;7.95;;
17997;SDS011;9124;48.144;17.098;2023-03-01T20:55:41;17.52;;;7.82;;
17997;SDS011;9124;48.144;17.098;2023-03-01T20:59:18;15.18;;;8.35;;
17997;SDS011;9124;48.144;17.098;2023-03-01T21:02:54;18.75;;;9.50;;
17997;SDS011;9124;48.144;17.098;2023-03-01T21:06:31;12.40;;;8.48;;
17997;SDS011;9124;48.144;17.098;2023-03-01T21:10:07;13.65;;;8.18;;
17997;SDS011;9124;48.144;17.098;2023-03-01T21:13:44;13.18;;;8.73;;
17997;SDS011;9124;48.144;17.098;2023-03-01T21:17:21;16.30;;;8.90;;
17997;SDS011;9124;48.144;17.098;2023-03-01T21:21:08;14.45;;;8.52;;
17997;SDS011;9124;48.144;17.098;2023-03-01T21:24:46;13.50;;;7.75;;
17997;SDS011;9124;48.144;17.098;2023-03-01T21:28:23;14.18;;;8.20;;
17997;SDS011;9124;48.144;17.098;2023-03-01T21:32:02;14.88;;;8.50;;
17997;SDS011;9124;48.144;17.098;2023-03-01T21:35:38;14.23;;;7.65;;
17997;SDS011;9124;48.144;17.098;2023-03-01T21:39:15;11.82;;;7.57;;
17997;SDS011;9124;48.144;17.098;2023-03-01T21:42:51;12.15;;;8.40;;
17997;SDS011;9124;48.144;17.098;2023-03-01T21:46:29;13.30;;;7.97;;
17997;SDS011;9124;48.144;17.098;2023-03-01T21:50:07;12.25;;;7.90;;
17997;SDS011;9124;48.144;17.098;2023-03-01T21:53:45;12.02;;;7.78;;
17997;SDS011;9124;48.144;17.098;2023-03-01T21:57:21;14.27;;;8.50;;
17997;SDS011;9124;48.144;17.098;2023-03-01T22:01:04;12.13;;;7.32;;
17997;SDS011;9124;48.144;17.098;2023-03-01T22:04:42;11.88;;;7.75;;
17997;SDS011;9124;48.144;17.098;2023-03-01T22:08:20;13.13;;;8.00;;
17997;SDS011;9124;48.144;17.098;2023-03-01T22:11:57;11.30;;;7.18;;
17997;SDS011;9124;48.144;17.098;2023-03-01T22:15:39;7.18;;;6.47;;
17997;SDS011;9124;48.144;17.098;2023-03-01T22:19:19;8.82;;;7.53;;
17997;SDS011;9124;48.144;17.098;2023-03-01T22:22:57;12.43;;;7.43;;
17997;SDS011;9124;48.144;17.098;2023-03-01T22:26:36;10.55;;;7.00;;
17997;SDS011;9124;48.144;17.098;2023-03-01T22:30:15;10.88;;;6.65;;
17997;SDS011;9124;48.144;17.098;2023-03-01T22:33:52;10.23;;;7.25;;
17997;SDS011;9124;48.144;17.098;2023-03-01T22:37:29;10.20;;;6.40;;
17997;SDS011;9124;48.144;17.098;2023-03-01T22:41:05;8.43;;;6.53;;
17997;SDS011;9124;48.144;17.098;2023-03-01T22:44:42;12.45;;;7.25;;
17997;SDS011;9124;48.144;17.098;2023-03-01T22:48:18;10.35;;;7.63;;
17997;SDS011;9124;48.144;17.098;2023-03-01T22:51:55;9.02;;;7.13;;
17997;SDS011;9124;48.144;17.098;2023-03-01T22:55:31;11.20;;;7.95;;
17997;SDS011;9124;48.144;17.098;2023-03-01T22:59:09;13.77;;;9.32;;
17997;SDS011;9124;48.144;17.098;2023-03-01T23:02:47;18.83;;;9.70;;
17997;SDS011;9124;48.144;17.098;2023-03-01T23:06:24;17.48;;;8.85;;
17997;SDS011;9124;48.144;17.098;2023-03-01T23:10:05;32.22;;;10.18;;
17997;SDS011;9124;48.144;17.098;2023-03-01T23:13:41;18.70;;;10.52;;
17997;SDS011;9124;48.144;17.098;2023-03-01T23:17:18;16.17;;;10.82;;
17997;SDS011;9124;48.144;17.098;2023-03-01T23:20:55;18.38;;;9.80;;
17997;SDS011;9124;48.144;17.098;2023-03-01T23:24:32;15.52;;;10.13;;
17997;SDS011;9124;48.144;17.098;2023-03-01T23:28:08;12.07;;;8.18;;
17997;SDS011;9124;48.144;17.098;2023-03-01T23:31:45;14.80;;;8.90;;
17997;SDS011;9124;48.144;17.098;2023-03-01T23:35:21;9.70;;;8.60;;
17997;SDS011;9124;48.144;17.098;2023-03-01T23:38:59;19.50;;;10.48;;
17997;SDS011;9124;48.144;17.098;2023-03-01T23:42:38;17.52;;;9.60;;